createdAt,value
2022-09-30T00:01:36.484Z,7.70
2022-09-30T00:04:03.518Z,7.57
2022-09-30T00:06:35.259Z,6.88
2022-09-30T00:09:02.383Z,6.60
2022-09-30T00:11:31.314Z,7.43
2022-09-30T00:13:58.418Z,7.43
2022-09-30T00:16:27.585Z,7.70
2022-09-30T00:18:55.910Z,8.00
2022-09-30T00:21:25.299Z,7.18
2022-09-30T00:23:52.008Z,6.68
2022-09-30T00:26:21.210Z,7.30
2022-09-30T00:28:55.975Z,6.65
2022-09-30T00:31:27.344Z,7.20
2022-09-30T00:34:11.516Z,9.30
2022-09-30T00:36:49.024Z,7.20
2022-09-30T00:39:22.655Z,8.13
2022-09-30T00:41:58.404Z,8.30
2022-09-30T00:44:44.248Z,8.55
2022-09-30T00:47:37.380Z,8.40
2022-09-30T00:50:25.212Z,7.43
2022-09-30T00:53:40.016Z,7.25
2022-09-30T00:56:10.481Z,8.43
2022-09-30T00:58:47.124Z,7.28
2022-09-30T01:01:15.988Z,8.05
2022-09-30T01:03:50.654Z,8.77
2022-09-30T01:06:19.067Z,7.53
2022-09-30T01:08:48.328Z,8.40
2022-09-30T01:11:17.749Z,9.02
2022-09-30T01:16:22.901Z,7.72
2022-09-30T01:19:27.560Z,8.00
2022-09-30T01:22:08.588Z,8.52
2022-09-30T01:24:50.567Z,8.50
2022-09-30T01:27:38.415Z,8.27
2022-09-30T01:30:35.962Z,8.52
2022-09-30T01:33:37.445Z,8.63
2022-09-30T01:36:31.138Z,9.05
2022-09-30T01:39:25.786Z,8.27
2022-09-30T01:41:53.068Z,9.20
2022-09-30T01:44:29.906Z,8.15
2022-09-30T01:47:09.716Z,8.13
2022-09-30T01:49:43.945Z,8.68
2022-09-30T01:52:44.866Z,8.93
2022-09-30T01:55:21.458Z,8.55
2022-09-30T01:57:56.723Z,8.27
2022-09-30T02:00:24.629Z,9.32
2022-09-30T02:03:06.463Z,8.30
2022-09-30T02:06:16.162Z,8.15
2022-09-30T02:09:07.052Z,9.18
2022-09-30T02:11:36.309Z,9.30
2022-09-30T02:14:24.211Z,8.40
2022-09-30T02:16:56.795Z,10.32
2022-09-30T02:19:38.183Z,8.93
2022-09-30T02:22:11.984Z,8.10
2022-09-30T02:24:39.909Z,8.95
2022-09-30T02:27:12.137Z,9.80
2022-09-30T02:29:42.400Z,9.57
2022-09-30T02:32:16.862Z,9.75
2022-09-30T02:34:51.145Z,9.00
2022-09-30T02:37:22.164Z,9.80
2022-09-30T02:39:54.379Z,9.13
2022-09-30T02:42:28.597Z,9.85
2022-09-30T02:45:08.691Z,9.38
2022-09-30T02:47:38.494Z,8.80
2022-09-30T02:50:44.267Z,10.07
2022-09-30T02:53:18.973Z,10.57
2022-09-30T02:56:17.231Z,10.38
2022-09-30T02:58:49.729Z,12.10
2022-09-30T03:01:17.370Z,10.23
2022-09-30T03:04:00.125Z,11.60
2022-09-30T03:06:32.596Z,11.48
2022-09-30T03:08:59.410Z,12.13
2022-09-30T03:11:29.135Z,10.82
2022-09-30T03:14:19.307Z,11.68
2022-09-30T03:16:58.102Z,11.18
2022-09-30T03:19:27.814Z,11.48
2022-09-30T03:22:00.444Z,10.88
2022-09-30T03:24:42.701Z,12.73
2022-09-30T03:27:37.586Z,12.50
2022-09-30T03:30:22.121Z,12.75
2022-09-30T03:32:57.016Z,14.40
2022-09-30T03:35:55.001Z,12.55
2022-09-30T03:38:30.697Z,12.30
2022-09-30T03:41:09.210Z,12.32
2022-09-30T03:43:43.824Z,13.68
2022-09-30T03:46:19.094Z,12.65
2022-09-30T03:48:47.197Z,12.18
2022-09-30T03:51:13.968Z,14.20
2022-09-30T03:53:44.400Z,14.32
2022-09-30T03:56:11.121Z,12.93
2022-09-30T03:58:45.566Z,17.83
2022-09-30T04:01:21.465Z,15.15
2022-09-30T04:03:52.780Z,12.32
2022-09-30T04:06:21.907Z,12.63
2022-09-30T04:08:49.193Z,14.10
2022-09-30T04:11:16.328Z,14.10
2022-09-30T04:13:45.580Z,11.82
2022-09-30T04:16:16.893Z,11.68
2022-09-30T04:18:44.458Z,12.50
2022-09-30T04:21:16.012Z,14.63
2022-09-30T04:23:45.100Z,15.52
2022-09-30T04:26:20.086Z,13.38
2022-09-30T04:28:52.555Z,13.65
2022-09-30T04:31:20.733Z,13.85
2022-09-30T04:33:50.738Z,16.48
2022-09-30T04:36:20.612Z,13.43
2022-09-30T04:38:47.397Z,12.80
2022-09-30T04:41:17.687Z,12.77
2022-09-30T04:43:47.859Z,11.20
2022-09-30T04:46:16.402Z,12.15
2022-09-30T04:48:45.886Z,12.23
2022-09-30T04:52:17.069Z,11.98
2022-09-30T04:59:22.652Z,14.93
2022-09-30T05:01:52.286Z,12.43
2022-09-30T05:01:56.358Z,12.75
2022-09-30T05:04:21.917Z,13.23
2022-09-30T05:06:49.701Z,12.38
2022-09-30T05:09:18.997Z,13.10
2022-09-30T05:14:12.399Z,11.93
2022-09-30T05:16:41.384Z,14.25
2022-09-30T05:19:10.345Z,13.10
2022-09-30T05:21:37.047Z,14.32
2022-09-30T05:24:04.341Z,12.68
2022-09-30T05:26:30.985Z,13.15
2022-09-30T05:28:58.120Z,13.85
2022-09-30T05:31:27.327Z,12.52
2022-09-30T05:36:25.492Z,11.65
2022-09-30T05:38:55.121Z,11.50
2022-09-30T05:41:22.168Z,11.70
2022-09-30T05:43:52.092Z,11.85
2022-09-30T05:46:21.327Z,12.00
2022-09-30T05:48:52.638Z,11.02
2022-09-30T05:51:19.492Z,11.73
2022-09-30T05:53:48.315Z,11.23
2022-09-30T05:56:15.621Z,11.00
2022-09-30T05:58:42.470Z,11.90
2022-09-30T06:01:14.562Z,10.25
2022-09-30T06:03:43.322Z,12.63
2022-09-30T06:06:13.686Z,11.80
2022-09-30T06:08:41.414Z,11.52
2022-09-30T06:11:11.988Z,12.10
2022-09-30T06:13:39.768Z,12.80
2022-09-30T06:16:09.703Z,12.10
2022-09-30T06:18:41.485Z,12.27
2022-09-30T06:21:11.325Z,12.35
2022-09-30T06:23:38.279Z,12.77
2022-09-30T06:26:06.557Z,11.48
2022-09-30T06:28:35.813Z,12.68
2022-09-30T06:31:06.673Z,13.00
2022-09-30T06:33:37.832Z,17.92
2022-09-30T06:36:09.009Z,13.60
2022-09-30T06:38:37.528Z,12.65
2022-09-30T06:41:04.842Z,15.10
2022-09-30T06:43:41.942Z,17.70
2022-09-30T06:46:27.472Z,12.98
2022-09-30T06:49:09.065Z,11.53
2022-09-30T06:51:39.245Z,11.80
2022-09-30T06:54:05.914Z,12.15
2022-09-30T06:56:32.662Z,12.63
2022-09-30T06:59:01.867Z,13.73
2022-09-30T07:01:32.399Z,12.48
2022-09-30T07:03:59.133Z,14.70
2022-09-30T07:06:26.468Z,14.90
2022-09-30T07:08:56.840Z,12.75
2022-09-30T07:11:26.113Z,12.32
2022-09-30T07:13:57.564Z,13.07
2022-09-30T07:16:26.492Z,11.68
2022-09-30T07:18:53.943Z,17.67
2022-09-30T07:21:25.165Z,13.10
2022-09-30T07:23:53.266Z,15.93
2022-09-30T07:26:22.738Z,9.88
2022-09-30T07:28:52.559Z,10.40
2022-09-30T07:31:35.276Z,12.13
2022-09-30T07:34:07.031Z,12.02
2022-09-30T07:36:35.658Z,11.45
2022-09-30T07:39:06.713Z,12.13
2022-09-30T07:41:36.601Z,13.93
2022-09-30T07:44:07.602Z,13.38
2022-09-30T07:46:35.535Z,11.18
2022-09-30T07:49:04.353Z,9.68
2022-09-30T07:51:34.405Z,11.20
2022-09-30T07:54:05.829Z,11.38
2022-09-30T07:57:05.017Z,9.38
2022-09-30T07:59:28.440Z,9.60
2022-09-30T08:01:55.795Z,10.00
2022-09-30T08:04:23.596Z,10.00
2022-09-30T08:06:53.593Z,8.50
2022-09-30T08:09:27.037Z,9.98
2022-09-30T08:11:54.657Z,8.55
2022-09-30T08:14:23.784Z,8.75
2022-09-30T08:16:51.162Z,8.55
2022-09-30T08:19:23.162Z,8.70
2022-09-30T08:21:50.525Z,8.65
2022-09-30T08:24:19.478Z,9.25
2022-09-30T08:26:48.872Z,8.35
2022-09-30T08:29:20.781Z,9.77
2022-09-30T08:31:57.297Z,8.32
2022-09-30T08:34:24.245Z,9.68
2022-09-30T08:36:57.833Z,8.55
2022-09-30T08:39:28.572Z,9.63
2022-09-30T08:42:37.442Z,9.93
2022-09-30T08:45:31.802Z,10.02
2022-09-30T08:48:39.031Z,10.25
2022-09-30T08:51:37.318Z,10.98
2022-09-30T08:54:07.087Z,10.30
2022-09-30T08:56:34.247Z,11.00
2022-09-30T08:59:24.166Z,10.90
2022-09-30T09:01:54.927Z,11.32
2022-09-30T09:04:24.376Z,11.20
2022-09-30T09:06:58.947Z,11.48
2022-09-30T09:09:30.224Z,9.70
2022-09-30T09:12:03.245Z,9.68
2022-09-30T09:14:42.579Z,8.30
2022-09-30T09:17:31.114Z,9.00
2022-09-30T09:20:05.385Z,8.10
2022-09-30T09:22:35.536Z,9.02
2022-09-30T09:25:02.763Z,7.43
2022-09-30T09:28:02.344Z,7.07
2022-09-30T09:30:39.344Z,7.13
2022-09-30T09:33:23.174Z,4.63
2022-09-30T09:36:45.454Z,4.53
2022-09-30T09:39:22.826Z,3.63
2022-09-30T09:42:10.276Z,3.83
2022-09-30T09:44:49.487Z,2.33
2022-09-30T09:47:19.769Z,2.00
2022-09-30T09:49:57.690Z,2.53
2022-09-30T09:53:10.685Z,2.72
2022-09-30T09:55:38.411Z,1.70
2022-09-30T09:58:10.746Z,1.45
2022-09-30T10:00:46.503Z,1.60
2022-09-30T10:03:23.299Z,2.15
2022-09-30T10:06:13.239Z,2.38
2022-09-30T10:08:53.283Z,1.58
2022-09-30T10:11:22.779Z,1.02
2022-09-30T10:13:51.205Z,0.55
2022-09-30T10:16:37.959Z,0.60
2022-09-30T10:19:20.969Z,0.50
2022-09-30T10:21:51.837Z,0.70
2022-09-30T10:24:29.936Z,0.40
2022-09-30T10:26:59.338Z,0.70
2022-09-30T10:29:36.101Z,0.77
2022-09-30T10:32:07.185Z,1.08
2022-09-30T10:34:41.205Z,1.30
2022-09-30T10:37:19.979Z,1.55
2022-09-30T10:40:07.759Z,1.25
2022-09-30T10:42:36.393Z,2.13
2022-09-30T10:45:34.604Z,1.05
2022-09-30T10:48:07.153Z,0.90
2022-09-30T10:50:36.644Z,0.80
2022-09-30T10:53:15.788Z,0.80
2022-09-30T10:58:37.613Z,0.50
2022-09-30T11:01:15.686Z,0.30
2022-09-30T11:04:40.827Z,0.32
2022-09-30T11:07:18.405Z,0.60
2022-09-30T11:10:11.661Z,0.40
2022-09-30T11:13:16.248Z,0.40
2022-09-30T11:15:45.743Z,0.50
2022-09-30T11:18:35.387Z,0.40
2022-09-30T11:21:07.869Z,0.30
2022-09-30T11:23:43.910Z,0.40
2022-09-30T11:26:22.768Z,0.75
2022-09-30T11:29:07.639Z,0.30
2022-09-30T11:31:40.867Z,0.28
2022-09-30T11:34:22.832Z,0.30
2022-09-30T11:36:58.639Z,0.20
2022-09-30T11:39:35.089Z,0.20
2022-09-30T11:42:31.669Z,0.40
2022-09-30T11:45:32.532Z,0.20
2022-09-30T11:48:31.888Z,0.20
2022-09-30T11:51:24.092Z,0.32
2022-09-30T11:54:03.817Z,0.20
2022-09-30T11:56:46.052Z,0.30
2022-09-30T11:59:20.370Z,0.28
2022-09-30T12:01:50.290Z,0.20
2022-09-30T12:04:26.092Z,0.20
2022-09-30T12:07:01.183Z,0.30
2022-09-30T12:10:04.963Z,0.38
2022-09-30T12:12:32.518Z,0.20
2022-09-30T12:15:05.965Z,0.20
2022-09-30T12:17:42.618Z,0.30
2022-09-30T12:20:29.061Z,0.20
2022-09-30T12:23:21.779Z,0.20
2022-09-30T12:25:55.716Z,0.10
2022-09-30T12:29:08.889Z,0.20
2022-09-30T12:31:47.844Z,0.20
2022-09-30T12:34:20.359Z,0.10
2022-09-30T12:37:00.654Z,0.20
2022-09-30T12:39:38.828Z,0.30
2022-09-30T12:42:28.019Z,0.20
2022-09-30T12:45:24.248Z,0.20
2022-09-30T12:47:54.815Z,0.20
2022-09-30T12:50:29.039Z,0.20
2022-09-30T12:53:10.450Z,0.20
2022-09-30T12:55:41.419Z,0.20
2022-09-30T12:58:24.487Z,0.30
2022-09-30T13:01:21.803Z,0.30
2022-09-30T13:04:10.371Z,0.20
2022-09-30T13:06:45.481Z,0.40
2022-09-30T13:09:12.203Z,0.30
2022-09-30T13:11:44.282Z,0.32
2022-09-30T13:14:35.035Z,0.30
2022-09-30T13:17:07.053Z,0.20
2022-09-30T13:19:40.981Z,0.30
2022-09-30T13:22:20.088Z,0.30
2022-09-30T13:25:00.538Z,0.22
2022-09-30T13:27:54.330Z,0.20
2022-09-30T13:30:20.939Z,0.20
2022-09-30T13:33:43.280Z,0.32
2022-09-30T13:36:26.742Z,0.30
2022-09-30T13:39:40.520Z,0.30
2022-09-30T13:42:16.393Z,0.30
2022-09-30T13:45:16.326Z,0.30
2022-09-30T13:47:56.594Z,0.30
2022-09-30T13:50:33.147Z,0.30
2022-09-30T13:53:06.523Z,0.30
2022-09-30T13:55:40.226Z,0.38
2022-09-30T13:58:28.694Z,0.38
2022-09-30T14:01:09.272Z,0.30
2022-09-30T14:03:44.942Z,0.30
2022-09-30T14:06:33.116Z,0.30
2022-09-30T14:09:06.131Z,0.22
2022-09-30T14:11:47.307Z,0.35
2022-09-30T14:14:49.428Z,0.30
2022-09-30T14:17:43.858Z,0.30
2022-09-30T14:20:39.727Z,0.28
2022-09-30T14:23:17.461Z,0.28
2022-09-30T14:26:10.248Z,0.20
2022-09-30T14:28:49.874Z,0.20
2022-09-30T14:31:16.692Z,0.30
2022-09-30T14:33:49.058Z,0.15
2022-09-30T14:36:21.893Z,0.20
2022-09-30T14:39:14.089Z,0.20
2022-09-30T14:41:49.560Z,0.20
2022-09-30T14:44:20.132Z,0.20
2022-09-30T14:46:48.809Z,0.22
2022-09-30T14:49:22.563Z,0.20
2022-09-30T14:51:49.364Z,0.25
2022-09-30T14:54:28.992Z,0.25
2022-09-30T14:56:59.222Z,0.20
2022-09-30T14:59:38.339Z,0.20
2022-09-30T15:02:15.455Z,0.30
2022-09-30T15:04:52.075Z,0.30
2022-09-30T15:07:22.656Z,0.30
2022-09-30T15:09:50.256Z,0.25
2022-09-30T15:12:21.237Z,0.22
2022-09-30T15:14:54.705Z,0.20
2022-09-30T15:17:36.506Z,0.20
2022-09-30T15:20:22.481Z,0.20
2022-09-30T15:22:53.376Z,0.47
2022-09-30T15:25:21.883Z,0.25
2022-09-30T15:27:50.218Z,0.30
2022-09-30T15:30:19.837Z,0.20
2022-09-30T15:32:52.048Z,0.30
2022-09-30T15:35:21.807Z,0.20
2022-09-30T15:37:48.933Z,0.30
2022-09-30T15:40:41.681Z,0.47
2022-09-30T15:43:11.335Z,0.40
2022-09-30T15:45:44.480Z,1.48
2022-09-30T15:48:28.681Z,0.45
2022-09-30T15:51:01.177Z,0.38
2022-09-30T15:53:47.851Z,0.40
2022-09-30T15:56:34.542Z,0.43
2022-09-30T15:59:12.160Z,0.30
2022-09-30T16:01:41.717Z,0.30
2022-09-30T16:04:10.853Z,0.30
2022-09-30T16:07:00.936Z,0.50
2022-09-30T16:09:34.540Z,0.30
2022-09-30T16:12:18.242Z,0.93
2022-09-30T16:15:00.014Z,0.77
2022-09-30T16:17:38.062Z,1.10
2022-09-30T16:20:22.645Z,0.88
2022-09-30T16:22:54.934Z,0.60
2022-09-30T16:25:28.141Z,0.98
2022-09-30T16:28:12.361Z,0.65
2022-09-30T16:30:47.651Z,0.63
2022-09-30T16:33:15.977Z,0.40
2022-09-30T16:35:47.368Z,0.60
2022-09-30T16:38:21.775Z,0.63
2022-09-30T16:40:48.646Z,0.63
2022-09-30T16:43:17.095Z,0.70
2022-09-30T16:45:46.328Z,0.57
2022-09-30T16:48:17.302Z,0.88
2022-09-30T16:50:51.580Z,0.60
2022-09-30T16:53:18.669Z,0.80
2022-09-30T16:55:45.408Z,0.90
2022-09-30T16:58:15.233Z,0.77
2022-09-30T17:00:47.159Z,0.75
2022-09-30T17:03:16.158Z,1.20
2022-09-30T17:05:46.112Z,0.82
2022-09-30T17:08:17.028Z,1.00
2022-09-30T17:10:49.935Z,8.57
2022-09-30T17:13:19.716Z,2.78
2022-09-30T17:15:52.094Z,2.50
2022-09-30T17:18:24.259Z,1.00
2022-09-30T17:20:53.117Z,0.88
2022-09-30T17:23:26.291Z,1.95
2022-09-30T17:25:54.752Z,1.02
2022-09-30T17:28:24.624Z,0.90
2022-09-30T17:30:51.481Z,1.00
2022-09-30T17:33:20.897Z,1.15
2022-09-30T17:36:00.526Z,2.05
2022-09-30T17:38:27.272Z,1.17
2022-09-30T17:41:12.439Z,1.00
2022-09-30T17:43:41.820Z,1.50
2022-09-30T17:48:35.631Z,3.05
2022-09-30T17:51:05.590Z,4.60
2022-09-30T17:53:32.609Z,3.03
2022-09-30T17:56:10.215Z,2.45
2022-09-30T17:58:40.141Z,1.98
2022-09-30T18:01:10.550Z,1.60
2022-09-30T18:03:37.323Z,1.55
2022-09-30T18:06:08.636Z,2.40
2022-09-30T18:08:36.033Z,2.20
2022-09-30T18:11:02.918Z,2.05
2022-09-30T18:13:32.337Z,1.88
2022-09-30T18:16:05.458Z,1.80
2022-09-30T18:18:34.215Z,1.60
2022-09-30T18:21:00.901Z,2.60
2022-09-30T18:23:29.884Z,2.03
2022-09-30T18:25:59.971Z,2.05
2022-09-30T18:28:29.282Z,2.58
2022-09-30T18:33:22.620Z,2.60
2022-09-30T18:35:49.386Z,2.58
2022-09-30T18:38:18.680Z,2.50
2022-09-30T18:40:45.886Z,2.20
2022-09-30T18:43:16.911Z,2.50
2022-09-30T18:45:53.675Z,3.40
2022-09-30T18:48:20.419Z,3.42
2022-09-30T18:50:49.323Z,3.05
2022-09-30T18:53:16.111Z,4.00
2022-09-30T18:55:44.284Z,2.88
2022-09-30T18:58:11.029Z,3.67
2022-09-30T19:00:38.317Z,4.95
2022-09-30T19:03:05.123Z,5.00
2022-09-30T19:05:31.860Z,4.97
2022-09-30T19:07:58.589Z,4.95
2022-09-30T19:10:27.758Z,4.45
2022-09-30T19:12:54.467Z,4.75
2022-09-30T19:15:23.615Z,5.10
2022-09-30T19:17:53.701Z,4.75
2022-09-30T19:20:20.439Z,6.07
2022-09-30T19:22:48.095Z,4.65
2022-09-30T19:25:17.262Z,8.15
2022-09-30T19:27:44.566Z,6.97
2022-09-30T19:30:14.881Z,5.57
2022-09-30T19:32:41.660Z,7.63
2022-09-30T19:35:10.585Z,6.65
2022-09-30T19:37:55.282Z,5.85
2022-09-30T19:40:26.866Z,6.47
2022-09-30T19:42:53.587Z,6.88
2022-09-30T19:45:25.789Z,6.55
2022-09-30T19:47:54.042Z,5.85
2022-09-30T19:50:20.721Z,6.00
2022-09-30T19:52:56.098Z,5.35
2022-09-30T19:55:26.877Z,5.03
2022-09-30T19:57:53.749Z,4.60
2022-09-30T20:00:22.739Z,4.30
2022-09-30T20:02:52.690Z,6.07
2022-09-30T20:05:19.482Z,5.10
2022-09-30T20:07:51.231Z,5.68
2022-09-30T20:10:18.435Z,5.18
2022-09-30T20:12:45.746Z,5.13
2022-09-30T20:15:30.963Z,5.72
2022-09-30T20:17:58.339Z,5.45
2022-09-30T20:20:37.301Z,5.45
2022-09-30T20:23:04.322Z,5.28
2022-09-30T20:25:36.319Z,5.80
2022-09-30T20:28:09.139Z,5.72
2022-09-30T20:30:48.292Z,5.32
2022-09-30T20:33:19.682Z,5.30
2022-09-30T20:35:47.226Z,6.75
2022-09-30T20:38:17.450Z,5.45
2022-09-30T20:40:44.655Z,5.93
2022-09-30T20:43:11.353Z,6.22
2022-09-30T20:45:41.141Z,5.88
2022-09-30T20:48:08.434Z,5.38
2022-09-30T20:50:38.443Z,6.60
2022-09-30T20:53:14.040Z,6.18
2022-09-30T20:55:44.619Z,5.72
2022-09-30T20:58:12.680Z,6.15
2022-09-30T21:00:40.969Z,5.72
2022-09-30T21:03:12.266Z,6.30
2022-09-30T21:05:41.402Z,6.13
2022-09-30T21:08:10.106Z,7.00
2022-09-30T21:10:38.683Z,6.32
2022-09-30T21:13:10.518Z,6.95
2022-09-30T21:15:40.477Z,6.82
2022-09-30T21:18:07.380Z,6.40
2022-09-30T21:20:36.302Z,6.63
2022-09-30T21:23:03.934Z,6.75
2022-09-30T21:25:31.929Z,6.20
2022-09-30T21:27:58.772Z,6.72
2022-09-30T21:30:27.090Z,5.85
2022-09-30T21:32:56.769Z,6.72
2022-09-30T21:35:28.247Z,6.25
2022-09-30T21:37:54.940Z,7.05
2022-09-30T21:40:23.905Z,7.38
2022-09-30T21:42:53.107Z,6.13
2022-09-30T21:47:51.144Z,6.32
2022-09-30T21:52:44.357Z,6.15
2022-09-30T21:55:12.531Z,6.07
2022-09-30T21:57:39.235Z,6.43
2022-09-30T22:00:06.100Z,6.05
2022-09-30T22:02:40.783Z,6.60
2022-09-30T22:05:08.021Z,6.95
2022-09-30T22:07:34.982Z,6.65
2022-09-30T22:10:09.021Z,6.30
2022-09-30T22:12:38.267Z,7.15
2022-09-30T22:17:31.756Z,5.20
2022-09-30T22:20:01.098Z,6.75
2022-09-30T22:24:57.172Z,6.78
2022-09-30T22:27:24.871Z,7.53
2022-09-30T22:29:51.510Z,7.47
2022-09-30T22:32:18.412Z,6.90
2022-09-30T22:35:03.497Z,6.72
2022-09-30T22:37:48.734Z,7.28
2022-09-30T22:40:15.403Z,7.97
2022-09-30T22:42:47.940Z,7.47
2022-09-30T22:45:17.059Z,7.57
2022-09-30T22:47:43.750Z,7.30
2022-09-30T22:50:10.444Z,7.47
2022-09-30T22:52:37.087Z,8.50
2022-09-30T22:55:04.139Z,7.60
2022-09-30T22:57:31.064Z,8.57
2022-09-30T23:00:00.023Z,8.10
2022-09-30T23:02:26.813Z,8.65
2022-09-30T23:04:59.013Z,7.28
2022-09-30T23:07:25.803Z,7.88
2022-09-30T23:09:57.568Z,7.75
2022-09-30T23:12:29.950Z,7.68
2022-09-30T23:14:57.533Z,7.57
2022-09-30T23:17:25.464Z,7.45
2022-09-30T23:19:54.634Z,7.63
2022-09-30T23:22:21.288Z,7.57
2022-09-30T23:24:50.173Z,7.85
2022-09-30T23:27:16.872Z,7.65
2022-09-30T23:29:43.528Z,7.47
2022-09-30T23:32:10.307Z,7.20
2022-09-30T23:34:39.433Z,7.78
2022-09-30T23:37:06.139Z,7.15
2022-09-30T23:39:38.119Z,7.40
2022-09-30T23:42:04.834Z,7.50
2022-09-30T23:44:31.540Z,7.40
2022-09-30T23:47:16.632Z,7.45
2022-09-30T23:49:47.740Z,7.40
2022-09-30T23:52:17.815Z,7.72
2022-09-30T23:54:46.884Z,7.40
2022-09-30T23:57:13.608Z,7.68
2022-09-30T23:59:42.602Z,7.18
